Time;durP1;ratioP1;P1;durP2;ratioP2;P2;SDS_P1;SDS_P2;PMS_P1;PMS_P2;Temp;Humidity;BMP_temperature;BMP_pressure;BME280_temperature;BME280_humidity;BME280_pressure;Samples;Min_cycle;Max_cycle;Signal;HPM_P1;HPM_P2
2024/02/19 00:00:24;;;;;;;0.52;0.50;;;8.60;99.90;;;;;;4977070;28;20038;-80
2024/02/19 00:02:51;;;;;;;1.45;0.40;;;8.60;99.90;;;;;;4974386;28;20539;-78
2024/02/19 00:05:16;;;;;;;5.75;0.60;;;8.60;99.90;;;;;;4975856;28;20053;-79
2024/02/19 00:07:42;;;;;;;1.58;0.10;;;8.60;99.90;;;;;;4961556;28;20391;-79
2024/02/19 00:10:08;;;;;;;2.30;0.93;;;8.60;99.90;;;;;;4965951;28;20421;-79
2024/02/19 00:12:34;;;;;;;15.50;1.13;;;8.60;99.90;;;;;;4977225;28;20043;-79
2024/02/19 00:15:00;;;;;;;10.82;0.88;;;8.60;99.90;;;;;;4965537;28;20034;-79
2024/02/19 00:17:26;;;;;;;0.75;0.40;;;8.60;99.90;;;;;;4963453;28;20047;-79
2024/02/19 00:19:51;;;;;;;8.93;1.13;;;8.70;99.90;;;;;;4967523;28;20039;-79
2024/02/19 00:22:17;;;;;;;2.10;0.47;;;8.70;99.90;;;;;;4968654;28;20078;-77
2024/02/19 00:24:43;;;;;;;0.57;0.40;;;8.70;99.90;;;;;;4964459;28;20046;-78
2024/02/19 00:27:08;;;;;;;1.95;0.40;;;8.70;99.90;;;;;;4973605;28;20386;-80
2024/02/19 00:29:34;;;;;;;7.35;0.88;;;8.70;99.90;;;;;;4966646;28;20391;-80
2024/02/19 00:32:00;;;;;;;2.78;0.50;;;8.70;99.90;;;;;;4968449;28;20041;-80
2024/02/19 00:34:26;;;;;;;7.47;0.88;;;8.70;99.90;;;;;;4967048;28;20042;-75
2024/02/19 00:36:52;;;;;;;5.15;0.57;;;8.70;99.90;;;;;;4972136;28;20038;-80
2024/02/19 00:39:18;;;;;;;2.08;0.80;;;8.70;99.90;;;;;;4967713;28;20379;-80
2024/02/19 00:41:44;;;;;;;0.95;0.35;;;8.70;99.90;;;;;;4970305;28;20042;-80
2024/02/19 00:44:10;;;;;;;1.35;0.63;;;8.70;99.90;;;;;;4966501;28;20043;-81
2024/02/19 00:46:36;;;;;;;0.32;0.17;;;8.70;99.90;;;;;;4959506;28;20119;-80
2024/02/19 00:49:01;;;;;;;3.83;0.40;;;8.70;99.90;;;;;;4965551;28;20045;-81
2024/02/19 00:51:27;;;;;;;7.57;0.43;;;8.70;99.90;;;;;;4967223;28;20557;-82
2024/02/19 00:53:53;;;;;;;0.03;0.00;;;8.70;99.90;;;;;;4970392;28;20588;-79
2024/02/19 00:56:18;;;;;;;0.00;0.00;;;8.70;99.90;;;;;;4952930;28;20125;-80
2024/02/19 00:58:44;;;;;;;4.30;0.28;;;8.70;99.90;;;;;;4960523;28;20471;-77
2024/02/19 01:01:10;;;;;;;0.60;0.17;;;8.60;99.90;;;;;;4967410;28;20426;-80
2024/02/19 01:03:35;;;;;;;0.00;0.00;;;8.60;99.90;;;;;;4976092;28;20096;-81
2024/02/19 01:06:01;;;;;;;0.00;0.00;;;8.70;99.90;;;;;;4952935;28;20101;-79
2024/02/19 01:08:27;;;;;;;0.85;0.10;;;8.60;99.90;;;;;;4968903;28;20053;-81
2024/02/19 01:10:52;;;;;;;1.58;0.20;;;8.60;99.90;;;;;;4962813;28;20046;-80
2024/02/19 01:13:18;;;;;;;0.90;0.32;;;8.60;99.90;;;;;;4971342;28;20049;-81
2024/02/19 01:15:44;;;;;;;0.00;0.00;;;8.50;99.90;;;;;;4969431;28;20070;-80
2024/02/19 01:18:09;;;;;;;0.10;0.05;;;8.50;99.90;;;;;;4976327;28;20518;-81
2024/02/19 01:20:36;;;;;;;1.33;0.05;;;8.50;99.90;;;;;;4969151;28;20597;-80
2024/02/19 01:23:02;;;;;;;0.00;0.00;;;8.50;99.90;;;;;;4972475;28;20780;-79
2024/02/19 01:25:27;;;;;;;1.55;0.20;;;8.50;99.90;;;;;;4966936;28;20054;-80
2024/02/19 01:27:53;;;;;;;0.65;0.00;;;8.60;99.90;;;;;;4972676;28;20498;-81
2024/02/19 01:30:19;;;;;;;0.40;0.00;;;8.60;99.90;;;;;;4966432;28;20045;-80
2024/02/19 01:32:44;;;;;;;0.00;0.00;;;8.60;99.90;;;;;;4968791;28;20046;-80
2024/02/19 01:35:10;;;;;;;0.00;0.00;;;8.60;99.90;;;;;;4964395;28;20122;-81
2024/02/19 01:37:36;;;;;;;1.80;0.35;;;8.60;99.90;;;;;;4966770;28;20104;-81
2024/02/19 01:40:09;;;;;;;1.15;0.85;;;8.60;99.90;;;;;;4953636;28;20039;-79
2024/02/19 01:42:35;;;;;;;0.00;0.00;;;8.60;99.90;;;;;;4958238;28;20505;-81
2024/02/19 01:45:07;;;;;;;0.38;0.05;;;8.60;99.90;;;;;;4963249;28;20425;-80
2024/02/19 01:47:34;;;;;;;0.10;0.10;;;8.60;99.90;;;;;;4963632;28;20423;-81
2024/02/19 01:50:00;;;;;;;2.90;0.28;;;8.60;99.90;;;;;;4961264;28;20137;-79
2024/02/19 01:52:26;;;;;;;7.90;0.82;;;8.60;99.90;;;;;;4960662;28;20133;-79
2024/02/19 01:54:53;;;;;;;0.38;0.17;;;8.60;99.90;;;;;;4964344;28;20154;-80
2024/02/19 01:57:19;;;;;;;0.38;0.00;;;8.60;99.90;;;;;;4962367;28;20042;-79
2024/02/19 01:59:47;;;;;;;0.00;0.00;;;8.70;99.90;;;;;;4966843;28;20120;-80
2024/02/19 02:02:14;;;;;;;1.55;0.30;;;8.70;99.90;;;;;;4966648;28;20471;-80
2024/02/19 02:04:41;;;;;;;0.65;0.05;;;8.70;99.90;;;;;;4973593;28;20056;-79
2024/02/19 02:07:07;;;;;;;0.32;0.10;;;8.70;99.90;;;;;;4966192;28;20112;-79
2024/02/19 02:09:34;;;;;;;0.10;0.00;;;8.70;99.90;;;;;;4971574;28;20371;-79
2024/02/19 02:12:00;;;;;;;0.00;0.00;;;8.70;99.90;;;;;;4965942;28;20054;-78
2024/02/19 02:14:25;;;;;;;0.05;0.05;;;8.70;99.90;;;;;;4964777;28;20102;-75
2024/02/19 02:16:51;;;;;;;0.55;0.20;;;8.70;99.90;;;;;;4969688;28;20098;-80
2024/02/19 02:19:17;;;;;;;0.75;0.17;;;8.70;99.90;;;;;;4965459;28;20042;-79
2024/02/19 02:21:44;;;;;;;0.00;0.00;;;8.70;99.90;;;;;;4970864;28;20038;-79
2024/02/19 02:24:10;;;;;;;0.45;0.10;;;8.70;99.90;;;;;;4957856;28;20113;-77
2024/02/19 02:26:39;;;;;;;0.00;0.00;;;8.60;99.90;;;;;;4966372;28;20495;-79
2024/02/19 02:29:06;;;;;;;3.10;0.35;;;8.60;99.90;;;;;;4968097;28;20065;-80
2024/02/19 02:31:32;;;;;;;0.10;0.10;;;8.60;99.90;;;;;;4957164;28;20050;-79
2024/02/19 02:33:58;;;;;;;1.63;0.40;;;8.60;99.90;;;;;;4962555;28;20063;-79
2024/02/19 02:36:24;;;;;;;0.22;0.08;;;8.60;99.90;;;;;;4952357;28;20124;-79
2024/02/19 02:38:50;;;;;;;1.20;0.25;;;8.60;99.90;;;;;;4958341;28;20072;-79
2024/02/19 02:41:16;;;;;;;0.70;0.20;;;8.60;99.90;;;;;;4963813;28;20047;-79
2024/02/19 02:43:42;;;;;;;0.00;0.00;;;8.60;99.90;;;;;;4959802;28;20138;-80
2024/02/19 02:46:08;;;;;;;0.60;0.20;;;8.50;99.90;;;;;;4948217;28;20133;-79
2024/02/19 02:48:33;;;;;;;0.55;0.00;;;8.50;99.90;;;;;;4983744;28;20053;-79
2024/02/19 02:50:59;;;;;;;0.50;0.30;;;8.50;99.90;;;;;;4964986;28;20121;-79
2024/02/19 02:53:25;;;;;;;0.00;0.00;;;8.50;99.90;;;;;;4965470;28;20038;-80
2024/02/19 02:55:50;;;;;;;2.38;0.10;;;8.50;99.90;;;;;;4968263;28;20049;-80
2024/02/19 02:58:16;;;;;;;0.88;0.30;;;8.50;99.90;;;;;;4965540;28;20397;-80
2024/02/19 03:00:42;;;;;;;0.30;0.20;;;8.50;99.90;;;;;;4964505;28;20042;-77
2024/02/19 03:03:09;;;;;;;7.57;0.15;;;8.40;99.90;;;;;;4966325;28;20058;-76
2024/02/19 03:05:35;;;;;;;0.52;0.10;;;8.50;99.90;;;;;;4969055;28;20050;-80
2024/02/19 03:08:01;;;;;;;1.65;0.30;;;8.50;99.90;;;;;;4955936;28;20536;-79
2024/02/19 03:10:27;;;;;;;3.72;0.10;;;8.40;99.90;;;;;;4964785;28;20035;-79
2024/02/19 03:12:52;;;;;;;0.10;0.10;;;8.40;99.90;;;;;;4966399;28;20088;-79
2024/02/19 03:15:18;;;;;;;3.40;0.17;;;8.40;99.90;;;;;;4962830;28;20045;-78
2024/02/19 03:17:44;;;;;;;0.88;0.25;;;8.40;99.90;;;;;;4950636;28;20039;-79
2024/02/19 03:20:13;;;;;;;1.70;0.43;;;8.40;99.90;;;;;;4946221;28;20140;-78
2024/02/19 03:22:41;;;;;;;0.20;0.03;;;8.40;99.90;;;;;;4969500;28;20070;-77
2024/02/19 03:25:06;;;;;;;13.05;1.08;;;8.40;99.90;;;;;;4962247;28;20084;-77
2024/02/19 03:27:32;;;;;;;0.15;0.05;;;8.40;99.90;;;;;;4949327;28;20066;-78
2024/02/19 03:29:58;;;;;;;3.10;0.13;;;8.40;99.90;;;;;;4965061;28;20092;-78
2024/02/19 03:32:24;;;;;;;4.90;0.43;;;8.40;99.90;;;;;;4973527;28;20081;-77
2024/02/19 03:34:49;;;;;;;1.50;0.28;;;8.40;99.90;;;;;;4963483;28;20038;-77
2024/02/19 03:37:15;;;;;;;3.00;0.30;;;8.40;99.90;;;;;;4979448;28;20042;-77
2024/02/19 03:39:41;;;;;;;0.20;0.10;;;8.40;99.90;;;;;;4967034;28;20039;-78
2024/02/19 03:42:07;;;;;;;1.55;0.13;;;8.40;99.90;;;;;;4969323;28;20228;-78
2024/02/19 03:44:33;;;;;;;0.43;0.22;;;8.40;99.90;;;;;;4964146;28;20121;-77
2024/02/19 03:46:58;;;;;;;2.85;0.55;;;8.40;99.90;;;;;;4964943;28;20065;-78
2024/02/19 03:49:25;;;;;;;0.95;0.10;;;8.40;99.90;;;;;;4971705;28;20467;-78
2024/02/19 03:51:50;;;;;;;0.20;0.10;;;8.40;99.90;;;;;;4952116;28;20687;-79
2024/02/19 03:54:17;;;;;;;5.97;0.95;;;8.50;99.90;;;;;;4964966;28;20042;-80
2024/02/19 03:56:43;;;;;;;3.72;0.25;;;8.50;99.90;;;;;;4981950;28;20050;-75
2024/02/19 03:59:10;;;;;;;2.00;1.05;;;8.50;99.90;;;;;;4975996;28;20467;-79
2024/02/19 04:01:37;;;;;;;4.63;0.63;;;8.50;99.90;;;;;;4965835;28;20064;-78
2024/02/19 04:04:03;;;;;;;1.90;0.08;;;8.50;99.90;;;;;;4977935;28;20088;-78
2024/02/19 04:06:29;;;;;;;0.20;0.20;;;8.50;99.90;;;;;;4971187;28;20042;-79
2024/02/19 04:08:55;;;;;;;0.20;0.10;;;8.60;99.90;;;;;;4970280;28;20049;-79
2024/02/19 04:11:21;;;;;;;1.60;0.08;;;8.60;99.90;;;;;;4974306;28;20090;-78
2024/02/19 04:13:46;;;;;;;1.90;0.25;;;8.60;99.90;;;;;;4969228;28;20042;-79
2024/02/19 04:16:12;;;;;;;2.67;0.35;;;8.60;99.90;;;;;;4968352;28;20038;-78
2024/02/19 04:18:38;;;;;;;5.65;0.50;;;8.60;99.90;;;;;;4977605;28;20545;-78
2024/02/19 04:21:04;;;;;;;0.73;0.20;;;8.60;99.90;;;;;;4965681;28;20042;-78
2024/02/19 04:23:29;;;;;;;1.55;0.15;;;8.60;99.90;;;;;;4965582;28;20490;-78
2024/02/19 04:25:55;;;;;;;2.80;0.00;;;8.60;99.90;;;;;;4962336;28;20042;-78
2024/02/19 04:28:21;;;;;;;1.20;0.30;;;8.60;99.90;;;;;;4956502;28;20042;-78
2024/02/19 04:30:46;;;;;;;0.80;0.32;;;8.60;99.90;;;;;;4973492;28;20478;-78
2024/02/19 04:33:12;;;;;;;0.68;0.08;;;8.60;99.90;;;;;;4963943;28;20510;-76
2024/02/19 04:35:38;;;;;;;8.95;0.65;;;8.70;99.90;;;;;;4972517;28;20042;-77
2024/02/19 04:38:03;;;;;;;1.17;0.47;;;8.60;99.90;;;;;;4966475;28;20641;-77
2024/02/19 04:40:29;;;;;;;6.63;0.85;;;8.70;99.90;;;;;;4970826;28;20138;-79
2024/02/19 04:42:55;;;;;;;7.00;0.95;;;8.70;99.90;;;;;;4959659;28;20387;-78
2024/02/19 04:45:20;;;;;;;6.07;0.60;;;8.70;99.90;;;;;;4951978;28;20093;-74
2024/02/19 04:47:46;;;;;;;3.67;0.68;;;8.70;99.90;;;;;;4952830;28;20062;-78
2024/02/19 04:50:12;;;;;;;2.05;0.22;;;8.60;99.90;;;;;;4970374;28;20129;-77
2024/02/19 04:52:37;;;;;;;2.17;0.65;;;8.70;99.90;;;;;;4963491;28;20058;-76
2024/02/19 04:55:03;;;;;;;3.95;0.52;;;8.70;99.90;;;;;;4968588;28;20042;-77
2024/02/19 04:57:29;;;;;;;0.98;0.47;;;8.70;99.90;;;;;;4970124;28;20491;-77
2024/02/19 04:59:55;;;;;;;5.07;0.75;;;8.70;99.90;;;;;;4969439;28;20129;-74
2024/02/19 05:02:20;;;;;;;9.35;0.70;;;8.70;99.90;;;;;;4972373;28;20049;-74
2024/02/19 05:04:46;;;;;;;3.97;0.43;;;8.70;99.90;;;;;;4968586;28;20033;-76
2024/02/19 05:07:12;;;;;;;1.25;0.20;;;8.70;99.90;;;;;;4971578;28;20109;-77
2024/02/19 05:09:37;;;;;;;7.15;0.55;;;8.70;99.90;;;;;;4966049;28;20053;-77
2024/02/19 05:12:04;;;;;;;1.55;0.20;;;8.70;99.90;;;;;;4966972;28;20549;-77
2024/02/19 05:14:30;;;;;;;2.65;0.38;;;8.70;99.90;;;;;;4962480;28;20031;-77
2024/02/19 05:16:56;;;;;;;1.58;0.30;;;8.70;99.90;;;;;;4975375;28;20177;-77
2024/02/19 05:19:22;;;;;;;2.28;0.43;;;8.70;99.90;;;;;;4962470;28;20525;-77
2024/02/19 05:21:48;;;;;;;4.63;0.95;;;8.70;99.90;;;;;;4969465;28;20129;-78
2024/02/19 05:24:16;;;;;;;1.65;0.20;;;8.70;99.90;;;;;;4968656;28;20046;-77
2024/02/19 05:26:42;;;;;;;0.57;0.20;;;8.70;99.90;;;;;;4973973;28;20084;-78
2024/02/19 05:29:08;;;;;;;4.35;0.45;;;8.70;99.90;;;;;;4965762;28;20125;-78
2024/02/19 05:31:40;;;;;;;2.53;0.40;;;8.70;99.90;;;;;;4969549;28;20046;-77
2024/02/19 05:34:07;;;;;;;1.75;0.20;;;8.70;99.90;;;;;;4946837;28;20035;-78
2024/02/19 05:36:34;;;;;;;5.82;0.60;;;8.70;99.90;;;;;;4975391;28;20117;-77
2024/02/19 05:39:00;;;;;;;1.08;0.28;;;8.70;99.90;;;;;;4964672;28;20038;-78
2024/02/19 05:41:26;;;;;;;4.57;0.20;;;8.70;99.90;;;;;;4965316;28;20039;-78
2024/02/19 05:43:52;;;;;;;2.03;0.52;;;8.70;99.90;;;;;;4970521;28;20046;-77
2024/02/19 05:46:19;;;;;;;1.35;0.20;;;8.70;99.90;;;;;;4967128;28;20062;-78
2024/02/19 05:48:45;;;;;;;9.32;1.25;;;8.70;99.90;;;;;;4979882;28;20058;-78
2024/02/19 05:51:12;;;;;;;3.45;0.88;;;8.70;99.90;;;;;;4965941;28;20478;-74
2024/02/19 05:53:38;;;;;;;3.40;0.98;;;8.70;99.90;;;;;;4970896;28;20042;-78
2024/02/19 05:56:04;;;;;;;2.75;0.40;;;8.70;99.90;;;;;;4963735;28;20030;-78
2024/02/19 05:58:33;;;;;;;0.90;0.25;;;8.70;99.90;;;;;;4969171;28;20469;-78
2024/02/19 06:00:58;;;;;;;5.40;0.50;;;8.70;99.90;;;;;;4946363;28;20117;-78
2024/02/19 06:03:26;;;;;;;6.15;1.30;;;8.70;99.90;;;;;;4965719;28;20038;-77
2024/02/19 06:05:52;;;;;;;3.63;0.25;;;8.70;99.90;;;;;;4946809;28;20068;-78
2024/02/19 06:08:18;;;;;;;4.68;0.55;;;8.70;99.90;;;;;;4968929;28;20050;-79
2024/02/19 06:10:47;;;;;;;1.70;0.30;;;8.70;99.90;;;;;;4967531;28;20045;-77
2024/02/19 06:13:13;;;;;;;2.63;0.30;;;8.70;99.90;;;;;;4948641;28;20050;-77
2024/02/19 06:15:38;;;;;;;2.80;0.30;;;8.70;99.90;;;;;;4972333;28;20044;-77
2024/02/19 06:18:05;;;;;;;1.35;0.08;;;8.70;99.90;;;;;;4967869;28;20042;-78
2024/02/19 06:20:32;;;;;;;1.67;0.30;;;8.70;99.90;;;;;;4965515;28;20035;-78
2024/02/19 06:22:57;;;;;;;1.70;0.55;;;8.70;99.90;;;;;;4955014;28;20046;-76
2024/02/19 06:25:23;;;;;;;3.90;0.35;;;8.70;99.90;;;;;;4965894;28;20068;-75
2024/02/19 06:27:49;;;;;;;9.60;1.55;;;8.80;99.90;;;;;;4966418;28;20062;-73
2024/02/19 06:30:16;;;;;;;4.95;0.60;;;8.70;99.90;;;;;;4948454;28;20714;-78
2024/02/19 06:32:42;;;;;;;2.40;0.38;;;8.80;99.90;;;;;;4967497;28;20442;-76
2024/02/19 06:35:08;;;;;;;4.90;0.28;;;8.80;99.90;;;;;;4969570;28;20046;-77
2024/02/19 06:37:34;;;;;;;4.47;1.40;;;8.80;99.90;;;;;;4970927;28;20030;-77
2024/02/19 06:40:00;;;;;;;4.57;0.98;;;8.80;99.90;;;;;;4947917;28;20089;-78
2024/02/19 06:42:25;;;;;;;4.80;0.28;;;8.80;99.90;;;;;;4949090;28;20467;-76
2024/02/19 06:44:51;;;;;;;3.42;0.32;;;8.80;99.90;;;;;;4968495;28;20046;-76
2024/02/19 06:47:17;;;;;;;1.23;0.25;;;8.80;99.90;;;;;;4962845;28;20073;-76
2024/02/19 06:49:43;;;;;;;2.13;0.47;;;8.80;99.90;;;;;;4946803;28;20515;-76
2024/02/19 06:52:09;;;;;;;2.50;0.52;;;8.80;99.90;;;;;;4959573;28;20209;-78
2024/02/19 06:54:35;;;;;;;0.88;0.40;;;8.80;99.90;;;;;;4962067;28;20566;-78
2024/02/19 06:57:00;;;;;;;5.20;0.70;;;8.80;99.90;;;;;;4965946;28;20133;-77
2024/02/19 06:59:26;;;;;;;4.57;0.47;;;8.80;99.90;;;;;;4965730;28;20437;-77
2024/02/19 07:01:52;;;;;;;2.38;0.80;;;8.90;99.90;;;;;;4964412;28;20126;-79
2024/02/19 07:04:18;;;;;;;5.10;1.30;;;8.90;99.90;;;;;;4945494;28;20047;-78
2024/02/19 07:06:44;;;;;;;4.93;0.70;;;8.90;99.90;;;;;;4965478;28;20035;-77
2024/02/19 07:09:10;;;;;;;7.57;0.73;;;8.90;99.90;;;;;;4959047;28;20382;-78
2024/02/19 07:11:35;;;;;;;3.08;0.38;;;8.90;99.90;;;;;;4965656;28;20043;-77
2024/02/19 07:14:01;;;;;;;2.83;0.80;;;9.00;99.90;;;;;;4971094;28;20644;-77
2024/02/19 07:16:27;;;;;;;1.20;0.10;;;9.00;99.90;;;;;;4969250;28;20038;-77
2024/02/19 07:18:53;;;;;;;2.30;0.30;;;9.00;99.90;;;;;;4971185;28;20390;-78
2024/02/19 07:21:18;;;;;;;2.53;0.47;;;9.00;99.90;;;;;;4969646;28;20043;-78
2024/02/19 07:23:44;;;;;;;4.07;0.70;;;9.10;99.90;;;;;;4965377;28;20799;-78
2024/02/19 07:26:10;;;;;;;0.85;0.38;;;9.10;99.90;;;;;;4971800;28;20050;-76
2024/02/19 07:28:35;;;;;;;4.95;0.65;;;9.10;99.90;;;;;;4966227;28;20062;-78
2024/02/19 07:31:01;;;;;;;2.88;0.60;;;9.20;99.90;;;;;;4966868;28;20050;-78
2024/02/19 07:33:27;;;;;;;3.40;0.75;;;9.20;99.90;;;;;;4949349;28;20036;-77
2024/02/19 07:35:53;;;;;;;2.00;0.57;;;9.20;99.90;;;;;;4973896;28;20030;-78
2024/02/19 07:38:22;;;;;;;6.03;1.45;;;9.20;99.90;;;;;;4964070;28;20482;-78
2024/02/19 07:40:48;;;;;;;0.85;0.38;;;9.20;99.90;;;;;;4979328;28;20034;-78
2024/02/19 07:43:14;;;;;;;5.90;0.95;;;9.30;99.90;;;;;;4958593;28;20065;-78
2024/02/19 07:45:40;;;;;;;4.68;0.52;;;9.30;99.90;;;;;;4972913;28;20058;-78
2024/02/19 07:48:07;;;;;;;2.72;0.40;;;9.30;99.90;;;;;;4963818;28;20066;-78
2024/02/19 07:50:36;;;;;;;2.63;0.45;;;9.30;99.90;;;;;;4973401;28;20047;-77
2024/02/19 07:53:01;;;;;;;3.70;0.40;;;9.30;99.90;;;;;;4965510;28;20051;-77
2024/02/19 07:55:30;;;;;;;1.85;0.77;;;9.40;99.90;;;;;;4972463;28;20094;-78
2024/02/19 07:57:56;;;;;;;3.75;0.45;;;9.40;99.90;;;;;;4954727;28;20030;-78
2024/02/19 08:00:21;;;;;;;1.45;0.50;;;9.50;99.90;;;;;;4968730;28;20500;-77
2024/02/19 08:02:47;;;;;;;8.25;0.85;;;9.60;99.90;;;;;;4974991;28;20034;-77
2024/02/19 08:05:16;;;;;;;1.42;0.38;;;9.70;99.90;;;;;;4973421;28;20043;-76
2024/02/19 08:07:42;;;;;;;3.40;0.70;;;9.70;99.90;;;;;;4969685;28;20070;-77
2024/02/19 08:10:08;;;;;;;2.10;0.63;;;9.70;99.90;;;;;;4961142;28;20128;-77
2024/02/19 08:12:34;;;;;;;6.65;1.38;;;9.80;99.90;;;;;;4975621;28;20035;-78
2024/02/19 08:15:00;;;;;;;6.45;0.88;;;9.80;99.90;;;;;;4966894;28;20521;-78
2024/02/19 08:17:25;;;;;;;2.13;0.43;;;9.90;99.90;;;;;;4967200;28;20082;-78
2024/02/19 08:19:51;;;;;;;7.35;0.98;;;9.90;99.90;;;;;;4965615;28;20038;-77
2024/02/19 08:22:17;;;;;;;3.03;0.75;;;10.00;99.90;;;;;;4972826;28;20053;-78
2024/02/19 08:24:42;;;;;;;1.35;0.38;;;10.00;99.90;;;;;;4968447;28;20050;-77
2024/02/19 08:27:08;;;;;;;1.40;0.40;;;10.00;99.90;;;;;;4972208;28;20034;-77
2024/02/19 08:29:34;;;;;;;1.38;0.47;;;10.00;99.90;;;;;;4967181;28;20046;-78
2024/02/19 08:32:01;;;;;;;3.25;1.00;;;10.10;99.90;;;;;;4971713;28;20414;-79
2024/02/19 08:34:27;;;;;;;3.10;0.65;;;10.10;99.90;;;;;;4974537;28;20042;-79
2024/02/19 08:36:53;;;;;;;8.63;0.80;;;10.10;99.90;;;;;;4973940;28;20593;-78
2024/02/19 08:39:18;;;;;;;2.75;0.60;;;10.10;99.90;;;;;;4986809;28;20049;-78
2024/02/19 08:41:44;;;;;;;0.22;0.17;;;10.10;99.90;;;;;;4970129;28;20030;-76
2024/02/19 08:44:10;;;;;;;4.20;0.73;;;10.20;99.90;;;;;;4977307;28;20042;-78
2024/02/19 08:46:36;;;;;;;6.10;0.50;;;10.20;99.90;;;;;;4951369;28;20058;-78
2024/02/19 08:49:01;;;;;;;1.60;0.17;;;10.30;99.90;;;;;;4970190;28;20492;-78
2024/02/19 08:51:28;;;;;;;0.88;0.40;;;10.30;99.90;;;;;;4969395;28;20328;-78
2024/02/19 08:53:54;;;;;;;2.53;0.90;;;10.40;99.90;;;;;;4968817;28;20029;-76
2024/02/19 08:56:20;;;;;;;8.52;0.57;;;10.40;99.90;;;;;;4949680;28;20053;-78
2024/02/19 08:58:46;;;;;;;2.25;0.47;;;10.40;99.90;;;;;;4953077;28;20483;-76
2024/02/19 09:01:14;;;;;;;5.25;1.17;;;10.40;99.90;;;;;;4970615;28;20051;-75
2024/02/19 09:03:40;;;;;;;7.30;0.70;;;10.50;99.90;;;;;;4976600;28;20391;-76
2024/02/19 09:06:06;;;;;;;1.00;0.40;;;10.50;99.90;;;;;;4972852;28;20054;-75
2024/02/19 09:08:32;;;;;;;2.75;0.40;;;10.50;99.90;;;;;;4977231;28;20042;-75
2024/02/19 09:10:58;;;;;;;10.43;0.65;;;10.60;99.90;;;;;;4971043;28;20666;-75
2024/02/19 09:13:24;;;;;;;2.28;0.43;;;10.60;99.90;;;;;;4975112;28;20137;-76
2024/02/19 09:15:50;;;;;;;1.10;0.47;;;10.60;99.90;;;;;;4966665;28;20093;-76
2024/02/19 09:18:15;;;;;;;1.88;0.60;;;10.70;99.90;;;;;;4959074;28;20101;-76
2024/02/19 09:20:41;;;;;;;3.30;0.95;;;10.70;99.90;;;;;;4969747;28;20030;-76
2024/02/19 09:23:07;;;;;;;2.60;0.30;;;10.70;99.90;;;;;;4972024;28;20057;-75
2024/02/19 09:25:32;;;;;;;9.43;1.08;;;10.80;99.90;;;;;;4974507;28;20039;-74
2024/02/19 09:27:58;;;;;;;1.15;0.40;;;10.80;99.90;;;;;;4974233;28;20095;-75
2024/02/19 09:30:24;;;;;;;11.77;1.38;;;10.70;99.90;;;;;;4975772;28;20576;-77
2024/02/19 09:32:50;;;;;;;2.70;0.57;;;10.70;99.90;;;;;;4961872;28;20375;-74
2024/02/19 09:35:16;;;;;;;10.63;1.60;;;10.70;99.90;;;;;;4962956;28;20061;-76
2024/02/19 09:37:42;;;;;;;4.57;0.55;;;10.70;99.90;;;;;;4946001;28;20038;-75
2024/02/19 09:40:11;;;;;;;10.80;1.13;;;10.70;99.90;;;;;;4967628;28;20069;-75
2024/02/19 09:42:37;;;;;;;1.23;0.43;;;10.70;99.90;;;;;;4956713;28;20049;-75
2024/02/19 09:45:05;;;;;;;1.25;0.50;;;10.70;99.90;;;;;;4962390;28;20034;-75
2024/02/19 09:47:32;;;;;;;2.35;0.82;;;10.60;99.90;;;;;;4965656;28;20058;-78
2024/02/19 09:49:58;;;;;;;0.60;0.32;;;10.60;99.90;;;;;;4963785;28;20042;-75
2024/02/19 09:52:25;;;;;;;1.95;0.60;;;10.70;99.90;;;;;;4968159;28;20042;-75
2024/02/19 09:54:52;;;;;;;4.60;0.82;;;10.60;99.90;;;;;;4964516;28;20046;-76
2024/02/19 09:57:21;;;;;;;1.38;0.60;;;10.60;99.90;;;;;;4963296;28;20504;-75
2024/02/19 09:59:50;;;;;;;2.38;0.60;;;10.60;99.90;;;;;;4964006;28;20039;-74
2024/02/19 10:02:19;;;;;;;6.10;1.08;;;10.60;99.90;;;;;;4963483;28;20129;-74
2024/02/19 10:04:48;;;;;;;3.97;0.77;;;10.60;99.90;;;;;;4963134;28;20041;-75
2024/02/19 10:07:18;;;;;;;1.45;0.55;;;10.60;99.90;;;;;;4947734;28;20045;-75
2024/02/19 10:09:46;;;;;;;5.43;1.02;;;10.60;99.90;;;;;;4965911;28;20050;-76
2024/02/19 10:12:12;;;;;;;3.40;0.73;;;10.60;99.90;;;;;;4971649;28;20051;-75
2024/02/19 10:14:37;;;;;;;4.63;0.63;;;10.60;99.90;;;;;;4963360;28;20050;-75
2024/02/19 10:17:05;;;;;;;1.65;0.90;;;10.60;99.90;;;;;;4969508;28;20038;-75
2024/02/19 10:19:31;;;;;;;1.33;0.60;;;10.60;99.90;;;;;;4973292;28;20077;-75
2024/02/19 10:22:00;;;;;;;3.22;1.27;;;10.60;99.90;;;;;;4961607;28;20050;-76
2024/02/19 10:24:26;;;;;;;1.23;0.88;;;10.70;99.90;;;;;;4961734;28;20109;-75
2024/02/19 10:26:52;;;;;;;3.65;1.05;;;10.70;99.90;;;;;;4961716;28;20113;-75
2024/02/19 10:29:18;;;;;;;3.33;0.60;;;10.80;99.90;;;;;;4949782;28;20418;-75
2024/02/19 10:31:44;;;;;;;5.82;0.93;;;10.80;99.90;;;;;;4965039;28;20121;-75
2024/02/19 10:34:11;;;;;;;2.78;0.55;;;10.80;99.90;;;;;;4960849;28;20035;-74
2024/02/19 10:36:37;;;;;;;9.07;1.10;;;10.80;99.90;;;;;;4967854;28;20045;-76
2024/02/19 10:39:07;;;;;;;1.85;0.88;;;10.80;99.90;;;;;;4963747;28;20046;-76
2024/02/19 10:41:38;;;;;;;8.25;0.88;;;10.90;99.90;;;;;;4967266;28;20051;-76
2024/02/19 10:44:08;;;;;;;3.45;0.60;;;10.90;99.90;;;;;;4979138;28;20750;-76
2024/02/19 10:47:53;;;;;;;9.07;0.80;;;10.90;99.90;;;;;;5138472;27;20882;-76
2024/02/19 10:50:20;;;;;;;2.42;0.52;;;11.00;99.90;;;;;;5089766;28;20101;-76
2024/02/19 10:52:49;;;;;;;3.80;1.48;;;11.00;99.90;;;;;;5106496;28;20467;-76
2024/02/19 10:55:22;;;;;;;4.95;1.08;;;11.10;99.90;;;;;;5108448;28;20455;-76
2024/02/19 10:57:55;;;;;;;1.27;0.52;;;11.10;99.90;;;;;;5102781;28;20539;-76
2024/02/19 11:00:25;;;;;;;3.20;0.90;;;11.10;99.90;;;;;;5089631;28;20045;-76
2024/02/19 11:03:07;;;;;;;1.50;0.82;;;11.10;99.90;;;;;;5108391;28;20066;-76
2024/02/19 11:05:38;;;;;;;5.10;0.57;;;11.20;99.90;;;;;;5101490;28;20050;-76
2024/02/19 11:08:05;;;;;;;3.65;1.15;;;11.30;99.90;;;;;;5103990;28;20039;-76
2024/02/19 11:10:41;;;;;;;1.55;0.52;;;11.30;99.90;;;;;;5088612;28;20038;-76
2024/02/19 11:13:07;;;;;;;8.48;1.05;;;11.40;99.90;;;;;;5089718;28;20035;-76
2024/02/19 11:15:40;;;;;;;2.97;0.80;;;11.40;99.90;;;;;;5109584;28;20450;-76
2024/02/19 11:18:23;;;;;;;3.20;0.47;;;11.50;99.90;;;;;;5102997;28;20035;-76
2024/02/19 11:20:50;;;;;;;4.45;0.80;;;11.50;99.90;;;;;;5108331;28;20574;-76
2024/02/19 11:23:18;;;;;;;5.95;1.55;;;11.40;99.90;;;;;;5104614;28;20028;-75
2024/02/19 11:25:48;;;;;;;5.15;0.63;;;11.40;99.90;;;;;;5098341;28;20463;-76
2024/02/19 11:28:14;;;;;;;1.00;0.50;;;11.40;99.90;;;;;;5123750;28;20038;-75
2024/02/19 11:30:39;;;;;;;1.42;0.45;;;11.40;99.90;;;;;;5121971;28;20043;-75
2024/02/19 11:33:06;;;;;;;4.07;0.93;;;11.40;99.90;;;;;;5117470;28;20081;-75
2024/02/19 11:35:35;;;;;;;2.55;0.52;;;11.40;99.90;;;;;;5122625;28;20148;-76
2024/02/19 11:38:02;;;;;;;6.18;1.08;;;11.40;99.90;;;;;;5116611;28;20036;-75
2024/02/19 11:40:37;;;;;;;5.20;0.65;;;11.40;99.90;;;;;;5120434;28;20165;-75
2024/02/19 11:43:04;;;;;;;0.30;0.30;;;11.40;99.90;;;;;;5112433;28;20070;-76
2024/02/19 11:45:31;;;;;;;3.88;1.17;;;11.50;99.90;;;;;;5120873;28;20042;-76
2024/02/19 11:47:57;;;;;;;5.82;0.55;;;11.50;99.90;;;;;;5118307;28;20051;-75
2024/02/19 11:50:29;;;;;;;0.65;0.52;;;11.50;99.90;;;;;;5102212;28;20043;-76
2024/02/19 11:52:58;;;;;;;3.33;0.90;;;11.50;99.90;;;;;;5120838;28;20044;-75
2024/02/19 11:55:24;;;;;;;4.85;0.93;;;11.50;99.90;;;;;;5113429;28;20558;-75
2024/02/19 11:57:51;;;;;;;1.67;0.60;;;11.50;99.90;;;;;;5112993;28;20040;-75
2024/02/19 12:00:17;;;;;;;3.47;0.90;;;11.50;99.90;;;;;;5103279;28;20050;-75
2024/02/19 12:02:51;;;;;;;2.95;0.70;;;11.50;99.90;;;;;;5106539;28;20109;-76
2024/02/19 12:05:18;;;;;;;1.40;0.50;;;11.40;99.90;;;;;;5105243;28;20069;-76
2024/02/19 12:07:44;;;;;;;1.65;0.40;;;11.40;99.90;;;;;;5106705;28;20055;-75
2024/02/19 12:10:11;;;;;;;2.92;0.80;;;11.40;99.90;;;;;;5086053;28;20415;-74
2024/02/19 12:12:38;;;;;;;1.75;0.68;;;11.40;99.90;;;;;;5110017;28;20067;-75
2024/02/19 12:15:19;;;;;;;1.10;0.30;;;11.40;99.90;;;;;;5083725;28;20070;-75
2024/02/19 12:17:45;;;;;;;2.22;0.50;;;11.40;99.90;;;;;;5110469;28;20088;-75
2024/02/19 12:20:11;;;;;;;3.45;0.55;;;11.40;99.90;;;;;;5105671;28;20474;-74
2024/02/19 12:22:40;;;;;;;0.98;0.40;;;11.40;99.90;;;;;;5106976;28;20047;-74
2024/02/19 12:25:07;;;;;;;2.72;0.28;;;11.30;99.90;;;;;;5108857;28;20051;-75
2024/02/19 12:27:36;;;;;;;1.45;0.30;;;11.30;99.90;;;;;;5110882;28;20046;-76
2024/02/19 12:30:02;;;;;;;6.32;0.50;;;11.30;99.90;;;;;;5104781;28;20042;-76
2024/02/19 12:32:29;;;;;;;2.83;0.77;;;11.30;99.90;;;;;;5106332;28;20032;-75
2024/02/19 12:34:55;;;;;;;3.92;0.45;;;11.30;99.90;;;;;;5088018;28;20028;-75
2024/02/19 12:37:22;;;;;;;3.13;0.73;;;11.30;99.90;;;;;;5107052;28;20039;-74
2024/02/19 12:39:48;;;;;;;2.80;0.32;;;11.30;99.90;;;;;;5105551;28;20039;-74
2024/02/19 12:42:14;;;;;;;1.45;0.30;;;11.30;99.90;;;;;;5104919;28;20043;-74
2024/02/19 12:44:41;;;;;;;3.75;0.80;;;11.30;99.90;;;;;;5106517;28;20047;-75
2024/02/19 12:47:07;;;;;;;1.45;0.60;;;11.30;99.90;;;;;;5077565;28;20135;-75
2024/02/19 12:49:34;;;;;;;1.75;0.45;;;11.30;99.90;;;;;;5104883;28;20041;-74